KSGF

Springfield-Branson National Airport

Springfield, Missouri, USA
METAR KSGF 171952Z 35012G17KT 10SM CLR 19/06 A3040 RMK AO2 SLP293 T01890056
Observed Flight Rules
Oct-17 @ 19:52 UTC (37 minutes ago) Visual Flight Rules
Wind Visibility Clouds
350° at 12 knots
 Gusting to 17 knots
10 miles
  • Clear skies
Temperatures Readings
Current 19°C / 66°F
Dewpoint 6°C / 43°F
Humidity 43%
Altimeter 30.4" Hg
Pressure 1029.3 hPa
Elevation 390
METAR KSGF 171952Z 35012G17KT 10SM CLR 19/06 A3040 RMK AO2 SLP293 T01890056
Observed Flight Rules
Oct-17 @ 19:52 UTC
(37 minutes ago)
VFR
Wind Visibility
350° at 12 knots
 Gusting to 17 knots
10 miles
Clouds
  • Clear skies
Temperature Dewpoint
19°C / 66°F 6°C / 43°F
Humidity Altimeter Pressure
43% 30.4" Hg 1029.3 hPa